ADDS METAR Data INFO
IDs: Format: Raw Decoded Include TAF

Data at: 2333 UTC 15 Dec 2017

KSOW 152315Z AUTO 34006KT 10SM CLR 10/M16 A3020 RMK AO2
KSOW 152255Z AUTO 34007KT 10SM CLR 10/M17 A3020 RMK AO2
KSOW 152235Z AUTO 35006KT 10SM CLR 11/M17 A3021 RMK AO2
KSOW 152215Z AUTO 02007KT 10SM CLR 11/M18 A3021 RMK AO2
KSOW 152155Z AUTO 35006KT 10SM CLR 10/M16 A3021 RMK AO2
KSOW 152135Z AUTO 03005KT 10SM CLR 10/M16 A3022 RMK AO2
KSOW 152115Z AUTO 02007G13KT 10SM CLR 10/M13 A3023 RMK AO2
KSOW 152055Z AUTO 01007KT 330V040 10SM CLR 09/M13 A3024 RMK AO2
KSOW 152035Z AUTO 05008KT 10SM CLR 09/M13 A3025 RMK AO2
KSOW 152015Z AUTO 01008KT 9SM CLR 08/M13 A3027 RMK AO2
KSOW 151955Z AUTO 02009KT 10SM CLR 08/M13 A3027 RMK AO2
KSOW 151935Z AUTO 01010KT 10SM CLR 07/M12 A3029 RMK AO2
KSOW 151915Z AUTO 35007KT 10SM CLR 06/M12 A3030 RMK AO2
KSOW 151855Z AUTO 35008KT 10SM CLR 05/M11 A3032 RMK AO2
KSOW 151835Z AUTO 35008KT 10SM CLR 05/M11 A3033 RMK AO2
KSOW 151815Z AUTO 02008KT 10SM CLR 04/M11 A3034 RMK AO2
KSOW 151755Z AUTO VRB06KT 10SM CLR 04/M11 A3035 RMK AO2
KSOW 151735Z AUTO 36006KT 10SM CLR 04/M11 A3036 RMK AO2
KSOW 151715Z AUTO 34005KT 10SM CLR 02/M12 A3036 RMK AO2
KSOW 151655Z AUTO VRB04KT 10SM CLR 01/M12 A3036 RMK AO2
KSOW 151635Z AUTO 00000KT 10SM CLR M00/M12 A3035 RMK AO2
KSOW 151615Z AUTO 00000KT 10SM CLR M01/M13 A3035 RMK AO2
KSOW 151555Z AUTO 00000KT 10SM CLR M03/M13 A3036 RMK AO2
KSOW 151535Z AUTO 09003KT 10SM CLR M04/M13 A3037 RMK AO2
KSOW 151515Z AUTO 10003KT 10SM CLR M05/M13 A3036 RMK AO2
KSOW 151455Z AUTO 07004KT 10SM CLR M06/M13 A3036 RMK AO2
KSOW 151435Z AUTO 07004KT 10SM -RA CLR M07/M14 A3036 RMK AO2
KSOW 151415Z AUTO 07004KT 10SM -RA CLR M07/M14 A3036 RMK AO2
KSOW 151355Z AUTO 07004KT 10SM -DZ CLR M07/M13 A3036 RMK AO2
KSOW 151335Z AUTO 08004KT 10SM -DZ CLR M07/M13 A3035 RMK AO2
KSOW 151315Z AUTO 07004KT 10SM -RA CLR M07/M13 A3034 RMK AO2
KSOW 151255Z AUTO 07003KT 10SM CLR M07/M13 A3034 RMK AO2
KSOW 151235Z AUTO 00000KT 10SM -DZ CLR M07/M12 A3034 RMK AO2
KSOW 151215Z AUTO 00000KT 10SM -RA CLR M06/M12 A3033 RMK AO2
KSOW 151155Z AUTO 00000KT 10SM -DZ CLR M07/M12 A3033 RMK AO2
KSOW 151135Z AUTO 00000KT 10SM CLR M07/M12 A3034 RMK AO2
KSOW 151115Z AUTO 00000KT 10SM CLR M07/M11 A3034 RMK AO2
KSOW 151055Z AUTO 00000KT 10SM CLR M06/M10 A3034 RMK AO2
KSOW 151035Z AUTO 08005KT 10SM CLR M06/M10 A3033 RMK AO2
KSOW 151015Z AUTO 08004KT 10SM -DZ CLR M06/M10 A3033 RMK AO2
KSOW 150955Z AUTO 08004KT 10SM -DZ CLR M05/M10 A3032 RMK AO2
KSOW 150935Z AUTO 06003KT 10SM -RA CLR M04/M10 A3032 RMK AO2
KSOW 150915Z AUTO 06004KT 10SM -DZ CLR M06/M10 A3032 RMK AO2
KSOW 150855Z AUTO 08005KT 10SM -DZ CLR M05/M10 A3032 RMK AO2
KSOW 150835Z AUTO 08003KT 10SM CLR M04/M10 A3031 RMK AO2
KSOW 150815Z AUTO 06003KT 10SM CLR M05/M10 A3031 RMK AO2
KSOW 150755Z AUTO 06003KT 10SM CLR M04/M10 A3030 RMK AO2
KSOW 150735Z AUTO 03003KT 10SM CLR M04/M10 A3031 RMK AO2
KSOW 150715Z AUTO 01005KT 10SM CLR M04/M10 A3031 RMK AO2
KSOW 150655Z AUTO 35003KT 10SM CLR M04/M10 A3031 RMK AO2
KSOW 150635Z AUTO 34005KT 10SM CLR M03/M10 A3031 RMK AO2
KSOW 150615Z AUTO 36003KT 10SM CLR M02/M09 A3031 RMK AO2
KSOW 150555Z AUTO 01003KT 10SM CLR M02/M09 A3030 RMK AO2
KSOW 150535Z AUTO 00000KT 10SM CLR M02/M09 A3030 RMK AO2
KSOW 150515Z AUTO 00000KT 10SM CLR M03/M10 A3029 RMK AO2
KSOW 150455Z AUTO 00000KT 10SM CLR M04/M10 A3028 RMK AO2
KSOW 150435Z AUTO 04005KT 10SM CLR M02/M09 A3027 RMK AO2
KSOW 150415Z AUTO 06005KT 10SM CLR M03/M10 A3027 RMK AO2
KSOW 150355Z AUTO 09005KT 10SM CLR M02/M10 A3026 RMK AO2
KSOW 150335Z AUTO 02005KT 10SM CLR M00/M09 A3025 RMK AO2
KSOW 150315Z AUTO 03007KT 10SM CLR M00/M09 A3025 RMK AO2
KSOW 150255Z AUTO 03007KT 10SM CLR M00/M09 A3024 RMK AO2
KSOW 150235Z AUTO 05004KT 10SM CLR M00/M09 A3023 RMK AO2
KSOW 150215Z AUTO 04006KT 10SM CLR M00/M08 A3023 RMK AO2
KSOW 150155Z AUTO 03006KT 10SM CLR 01/M08 A3022 RMK AO2
KSOW 150135Z AUTO 36007KT 10SM CLR 02/M08 A3021 RMK AO2
KSOW 150115Z AUTO 36008KT 10SM CLR 03/M08 A3021 RMK AO2
KSOW 150055Z AUTO 35007KT 10SM CLR 04/M08 A3020 RMK AO2
KSOW 150035Z AUTO 35009KT 10SM CLR 05/M07 A3019 RMK AO2
KSOW 150015Z AUTO 35009KT 9SM CLR 05/M07 A3018 RMK AO2
KSOW 142355Z AUTO 35010KT 10SM CLR 06/M07 A3017 RMK AO2
KSOW 142335Z AUTO 01012G17KT 10SM CLR 07/M07 A3016 RMK AO2
KSOW 142315Z AUTO 36009G16KT 10SM CLR 07/M07 A3015 RMK AO2
KSOW 142255Z AUTO 02008G15KT 10SM CLR 07/M07 A3015 RMK AO2
KSOW 142235Z AUTO 36012KT 9SM CLR 07/M07 A3014 RMK AO2
KSOW 142215Z AUTO 01012G19KT 10SM CLR 08/M07 A3014 RMK AO2
KSOW 142155Z AUTO 01013G20KT 10SM CLR 08/M07 A3013 RMK AO2
KSOW 142135Z AUTO 02013KT 9SM CLR 08/M07 A3013 RMK AO2
KSOW 142115Z AUTO 36016KT 10SM CLR 07/M07 A3013 RMK AO2
KSOW 142055Z AUTO 03013G19KT 10SM CLR 07/M07 A3013 RMK AO2
KSOW 142035Z AUTO 01013G19KT 9SM CLR 07/M08 A3013 RMK AO2
KSOW 142015Z AUTO 02015KT 10SM CLR 07/M08 A3013 RMK AO2
KSOW 141955Z AUTO 02015G21KT 9SM CLR 06/M08 A3013 RMK AO2
KSOW 141935Z AUTO 02015KT 9SM CLR 06/M08 A3014 RMK AO2
KSOW 141915Z AUTO 01014G20KT 9SM CLR 06/M08 A3014 RMK AO2
KSOW 141855Z AUTO 36013KT 10SM CLR 06/M09 A3014 RMK AO2
KSOW 141835Z AUTO 01016KT 10SM CLR 06/M10 A3015 RMK AO2
KSOW 141815Z AUTO 14.29166714KT 10SM CLR 05/M12 A3016 RMK AO2
KSOW 141755Z AUTO 36010KT 10SM CLR 04/M15 A3016 RMK AO2
KSOW 141735Z AUTO 36011KT 10SM CLR 04/M16 A3016 RMK AO2
KSOW 141715Z AUTO 02008KT 10SM CLR 03/M17 A3016 RMK AO2
KSOW 141655Z AUTO VRB05KT 10SM CLR 02/M17 A3015 RMK AO2
KSOW 141635Z AUTO 03006KT 10SM CLR 01/M17 A3015 RMK AO2
KSOW 141615Z AUTO 02005KT 10SM CLR 00/M17 A3014 RMK AO2
KSOW 141555Z AUTO 05003KT 10SM CLR M00/M17 A3013 RMK AO2
KSOW 141535Z AUTO 00000KT 10SM CLR M01/M17 A3012 RMK AO2
KSOW 141515Z AUTO 34004KT 10SM CLR M02/M17 A3011 RMK AO2
KSOW 141455Z AUTO 00000KT 10SM CLR M01/M18 A3011 RMK AO2
KSOW 141435Z AUTO 00000KT 10SM CLR M01/M18 A3010 RMK AO2
KSOW 141415Z AUTO 31006KT 10SM CLR 00/M17 A3009 RMK AO2
KSOW 141355Z AUTO 00000KT 10SM CLR M01/M15 A3008 RMK AO2
KSOW 141335Z AUTO 28003KT 10SM CLR 00/M15 A3006 RMK AO2
KSOW 141315Z AUTO 29004KT 10SM CLR M01/M14 A3006 RMK AO2
KSOW 141255Z AUTO 26007G13KT 10SM CLR 01/M13 A3004 RMK AO2
KSOW 141235Z AUTO 20006KT 10SM CLR 04/M12 A3002 RMK AO2
KSOW 141215Z AUTO 18009KT 10SM CLR 04/M12 A3002 RMK AO2
KSOW 141155Z AUTO 19007G12KT 10SM CLR 04/M12 A3002 RMK AO2
KSOW 141135Z AUTO 19008KT 10SM CLR 04/M13 A3002 RMK AO2